Time;durP1;ratioP1;P1;durP2;ratioP2;P2;SDS_P1;SDS_P2;PMS_P1;PMS_P2;Temp;Humidity;BMP_temperature;BMP_pressure;BME280_temperature;BME280_humidity;BME280_pressure;Samples;Min_cycle;Max_cycle;Signal;HPM_P1;HPM_P2
2022/07/18 00:00:16;;;;;;;6.63;4.43;;;;;;;15.90;52.33;94677.69;5010665;28;20038;-62
2022/07/18 00:02:43;;;;;;;6.70;4.60;;;;;;;15.85;52.04;94673.41;5016752;28;20042;-62
2022/07/18 00:05:10;;;;;;;5.97;4.45;;;;;;;15.84;52.01;94669.13;5011079;28;20038;-62
2022/07/18 00:07:37;;;;;;;5.73;4.40;;;;;;;15.82;52.06;94673.53;5010709;28;20042;-67
2022/07/18 00:10:04;;;;;;;6.25;4.57;;;;;;;15.82;52.12;94668.00;5010808;28;20038;-64
2022/07/18 00:12:31;;;;;;;7.40;4.30;;;;;;;15.80;52.51;94670.41;5009609;28;20053;-63
2022/07/18 00:14:58;;;;;;;5.60;4.35;;;;;;;15.77;52.38;94666.50;5010678;28;20513;-67
2022/07/18 00:17:25;;;;;;;6.47;4.35;;;;;;;15.71;52.62;94674.50;5009716;28;20056;-65
2022/07/18 00:19:52;;;;;;;6.03;4.47;;;;;;;15.60;53.74;94676.75;5010597;28;20046;-62
2022/07/18 00:22:19;;;;;;;7.70;4.60;;;;;;;15.53;54.39;94674.13;5010087;28;20038;-63
2022/07/18 00:24:46;;;;;;;7.25;4.43;;;;;;;15.48;54.21;94674.66;5010310;28;20042;-62
2022/07/18 00:27:12;;;;;;;6.50;4.35;;;;;;;15.48;53.74;94675.41;5008812;28;20053;-67
2022/07/18 00:29:39;;;;;;;7.43;4.45;;;;;;;15.45;53.59;94679.03;5010144;28;20072;-62
2022/07/18 00:32:08;;;;;;;5.80;4.53;;;;;;;15.42;53.51;94670.84;5009970;28;20045;-59
2022/07/18 00:34:35;;;;;;;6.47;4.65;;;;;;;15.32;53.57;94676.16;5020899;28;20044;-61
2022/07/18 00:37:02;;;;;;;10.52;7.15;;;;;;;15.36;53.27;94671.31;5011424;28;20061;-63
2022/07/18 00:39:29;;;;;;;10.63;5.50;;;;;;;15.36;53.69;94670.56;5009686;28;20046;-63
2022/07/18 00:41:56;;;;;;;8.45;4.90;;;;;;;15.36;53.66;94671.31;5010390;28;20394;-62
2022/07/18 00:44:24;;;;;;;7.67;4.80;;;;;;;15.40;53.47;94679.56;5008633;28;20054;-74
2022/07/18 00:46:57;;;;;;;7.13;4.70;;;;;;;15.23;54.10;94675.16;5007651;28;20410;-63
2022/07/18 00:49:24;;;;;;;6.50;4.63;;;;;;;15.11;55.45;94665.53;5005143;28;20104;-63
2022/07/18 00:51:51;;;;;;;6.88;5.00;;;;;;;14.86;56.34;94666.81;4999165;28;20054;-68
2022/07/18 00:54:19;;;;;;;5.72;4.50;;;;;;;14.87;55.95;94678.66;5008065;28;20060;-63
2022/07/18 00:56:48;;;;;;;6.13;4.53;;;;;;;14.87;55.62;94679.44;5010560;28;20565;-62
2022/07/18 00:59:16;;;;;;;6.45;4.90;;;;;;;14.80;55.54;94668.53;4996457;28;20092;-69
2022/07/18 01:01:43;;;;;;;6.10;4.63;;;;;;;14.88;55.15;94677.47;4997919;28;20033;-66
2022/07/18 01:04:16;;;;;;;8.27;5.10;;;;;;;14.75;56.77;94680.09;5012430;28;20103;-62
2022/07/18 01:06:43;;;;;;;7.03;4.97;;;;;;;14.59;57.52;94683.53;5010245;28;20672;-62
2022/07/18 01:09:10;;;;;;;9.80;5.00;;;;;;;14.51;57.40;94680.09;5009767;28;20041;-64
2022/07/18 01:11:36;;;;;;;7.05;4.60;;;;;;;14.56;56.94;94676.09;5010035;28;20426;-63
2022/07/18 01:14:05;;;;;;;31.75;18.45;;;;;;;14.55;56.30;94666.22;5010039;28;20046;-63
2022/07/18 01:16:33;;;;;;;10.02;7.10;;;;;;;14.54;56.33;94664.66;5008914;28;20071;-63
2022/07/18 01:19:01;;;;;;;7.38;5.47;;;;;;;14.53;55.97;94663.88;5008485;28;20065;-64
2022/07/18 01:21:28;;;;;;;7.07;5.00;;;;;;;14.58;55.43;94668.94;5009042;28;20068;-62
2022/07/18 01:23:55;;;;;;;6.30;4.57;;;;;;;14.61;55.38;94669.28;5009860;28;20038;-62
2022/07/18 01:26:22;;;;;;;6.68;4.32;;;;;;;14.60;55.18;94665.75;5008699;28;20053;-63
2022/07/18 01:28:50;;;;;;;6.07;4.38;;;;;;;14.51;55.85;94660.75;5009965;28;20053;-67
2022/07/18 01:31:17;;;;;;;6.72;4.45;;;;;;;14.47;56.08;94662.03;5009393;28;20038;-62
2022/07/18 01:33:44;;;;;;;5.73;4.43;;;;;;;14.46;56.21;94664.00;5013547;28;20107;-66
2022/07/18 01:36:11;;;;;;;6.20;4.63;;;;;;;14.26;58.17;94675.00;5014640;28;20057;-62
2022/07/18 01:38:38;;;;;;;6.65;4.93;;;;;;;14.21;57.85;94678.25;5010154;28;20042;-62
2022/07/18 01:41:05;;;;;;;6.43;4.90;;;;;;;14.21;57.87;94671.97;5013578;28;20044;-62
2022/07/18 01:43:32;;;;;;;7.05;4.97;;;;;;;14.24;58.00;94673.88;5012718;28;20467;-63
2022/07/18 01:45:59;;;;;;;6.67;5.20;;;;;;;14.21;57.88;94669.97;5013413;28;20143;-67
2022/07/18 01:48:26;;;;;;;9.25;6.68;;;;;;;14.22;57.41;94676.28;5012897;28;20046;-62
2022/07/18 01:50:53;;;;;;;7.38;5.30;;;;;;;14.17;57.50;94681.06;5013527;28;20042;-62
2022/07/18 01:53:19;;;;;;;7.18;4.93;;;;;;;14.17;57.52;94672.00;5011283;28;20044;-65
2022/07/18 01:55:47;;;;;;;6.50;4.72;;;;;;;14.08;57.69;94675.28;5013849;28;20058;-62
2022/07/18 01:58:13;;;;;;;7.90;4.90;;;;;;;14.07;57.61;94679.28;5012899;28;20410;-62
2022/07/18 02:00:40;;;;;;;6.57;4.88;;;;;;;14.06;57.61;94685.97;5012856;28;20041;-63
2022/07/18 02:03:07;;;;;;;6.93;4.85;;;;;;;14.07;57.39;94686.78;5018960;28;20045;-64
2022/07/18 02:05:34;;;;;;;7.80;4.90;;;;;;;14.03;57.78;94697.09;5013684;28;20103;-67
2022/07/18 02:08:01;;;;;;;7.43;5.20;;;;;;;14.02;57.69;94688.00;5013220;28;20410;-62
2022/07/18 02:10:28;;;;;;;6.77;4.90;;;;;;;13.98;58.02;94693.63;5012300;28;20394;-62
2022/07/18 02:12:54;;;;;;;7.43;4.85;;;;;;;13.97;57.93;94686.53;5012998;28;20042;-62
2022/07/18 02:15:21;;;;;;;6.90;5.22;;;;;;;13.89;58.33;94687.06;5012467;28;20784;-65
2022/07/18 02:17:48;;;;;;;6.10;4.72;;;;;;;13.85;57.87;94687.09;5011163;28;20072;-63
2022/07/18 02:20:15;;;;;;;5.90;4.65;;;;;;;13.83;58.18;94697.78;5012383;28;20042;-64
2022/07/18 02:22:42;;;;;;;7.43;5.00;;;;;;;13.77;58.03;94689.19;5012389;28;20520;-62
2022/07/18 02:25:10;;;;;;;6.88;4.90;;;;;;;13.76;58.04;94687.66;4997510;28;20506;-62
2022/07/18 02:27:37;;;;;;;7.00;5.00;;;;;;;13.74;58.41;94687.28;5007610;28;20048;-63
2022/07/18 02:30:06;;;;;;;7.25;4.95;;;;;;;13.68;58.66;94682.63;5012526;28;20037;-65
2022/07/18 02:32:34;;;;;;;8.05;5.60;;;;;;;13.37;60.56;94677.16;5011486;28;20838;-65
2022/07/18 02:35:01;;;;;;;7.93;5.97;;;;;;;13.25;60.93;94684.00;5021891;28;20264;-62
2022/07/18 02:37:28;;;;;;;7.72;5.60;;;;;;;13.28;60.45;94682.38;5011977;28;20038;-72
2022/07/18 02:39:54;;;;;;;7.10;5.43;;;;;;;13.37;59.97;94679.94;5012265;28;20041;-67
2022/07/18 02:42:21;;;;;;;6.82;5.28;;;;;;;13.40;59.90;94681.88;5011901;28;20449;-62
2022/07/18 02:44:48;;;;;;;7.97;5.70;;;;;;;13.38;60.34;94685.03;5011948;28;20046;-62
2022/07/18 02:47:15;;;;;;;8.20;5.40;;;;;;;13.36;60.16;94676.41;5011561;28;20046;-62
2022/07/18 02:49:41;;;;;;;6.97;5.47;;;;;;;13.35;60.15;94679.56;5011516;28;20050;-65
2022/07/18 02:52:08;;;;;;;7.65;5.60;;;;;;;13.32;60.62;94677.63;5011354;28;20053;-63
2022/07/18 02:54:37;;;;;;;7.28;5.20;;;;;;;13.28;60.63;94668.59;5011934;28;20410;-64
2022/07/18 02:57:04;;;;;;;8.30;5.60;;;;;;;13.24;60.63;94678.88;5011814;28;20428;-63
2022/07/18 02:59:31;;;;;;;7.10;5.60;;;;;;;13.20;60.77;94676.19;5011211;28;21072;-62
2022/07/18 03:01:58;;;;;;;9.20;5.70;;;;;;;13.11;61.38;94678.66;5014673;28;20050;-62
2022/07/18 03:04:25;;;;;;;7.20;5.50;;;;;;;13.10;61.09;94677.09;5012034;28;20072;-65
2022/07/18 03:06:52;;;;;;;6.75;5.32;;;;;;;13.10;60.95;94674.34;5012025;28;20050;-62
2022/07/18 03:09:19;;;;;;;6.93;5.15;;;;;;;13.07;61.12;94675.94;5011208;28;20070;-63
2022/07/18 03:11:47;;;;;;;7.50;5.50;;;;;;;13.03;60.99;94680.72;5011577;28;20140;-62
2022/07/18 03:14:14;;;;;;;7.40;5.63;;;;;;;12.99;61.63;94683.53;5011096;28;20073;-66
2022/07/18 03:16:41;;;;;;;9.55;5.60;;;;;;;12.97;61.59;94685.13;5004002;28;20047;-62
2022/07/18 03:19:08;;;;;;;7.85;5.68;;;;;;;12.98;61.88;94684.72;5005281;28;20041;-62
2022/07/18 03:21:35;;;;;;;9.30;5.80;;;;;;;12.91;61.69;94675.75;5011393;28;20471;-62
2022/07/18 03:24:01;;;;;;;8.00;5.47;;;;;;;12.94;61.62;94680.47;5011563;28;20050;-66
2022/07/18 03:26:28;;;;;;;8.43;5.45;;;;;;;12.94;61.84;94674.94;5010357;28;20042;-63
2022/07/18 03:28:55;;;;;;;7.72;5.50;;;;;;;12.85;61.95;94685.69;5011331;28;20099;-65
2022/07/18 03:31:22;;;;;;;8.05;5.70;;;;;;;12.70;62.67;94683.09;5042517;28;20056;-62
2022/07/18 03:33:49;;;;;;;9.75;5.70;;;;;;;12.61;63.08;94688.28;5012676;28;20050;-62
2022/07/18 03:36:16;;;;;;;8.47;5.53;;;;;;;12.66;63.07;94679.59;5011076;28;20574;-65
2022/07/18 03:38:43;;;;;;;7.13;5.40;;;;;;;12.75;62.18;94679.09;5009766;28;20052;-63
2022/07/18 03:41:10;;;;;;;7.45;5.57;;;;;;;12.80;62.52;94689.66;5010708;28;20042;-64
2022/07/18 03:43:38;;;;;;;7.80;5.78;;;;;;;12.76;62.44;94684.19;5011020;28;20045;-62
2022/07/18 03:46:06;;;;;;;8.20;5.65;;;;;;;12.78;62.00;94686.53;5011127;28;20537;-62
2022/07/18 03:48:34;;;;;;;7.90;5.70;;;;;;;12.83;61.77;94688.06;5009859;28;21038;-63
2022/07/18 03:51:02;;;;;;;7.80;5.65;;;;;;;12.85;62.01;94689.19;5010963;28;20368;-62
2022/07/18 03:53:30;;;;;;;9.27;5.65;;;;;;;12.89;61.29;94691.91;5005840;28;20043;-62
2022/07/18 03:55:57;;;;;;;7.60;5.88;;;;;;;12.88;61.43;94691.16;5011500;28;20038;-62
2022/07/18 03:58:23;;;;;;;7.35;5.90;;;;;;;12.88;61.64;94688.41;5010905;28;20041;-68
2022/07/18 04:00:51;;;;;;;10.50;6.27;;;;;;;12.89;61.37;94691.91;5010764;28;20046;-66
2022/07/18 04:03:18;;;;;;;7.47;5.53;;;;;;;12.82;61.90;94692.00;5017414;28;20042;-63
2022/07/18 04:05:46;;;;;;;8.77;6.20;;;;;;;12.79;62.15;94693.59;5010997;28;20049;-64
2022/07/18 04:08:13;;;;;;;8.75;6.07;;;;;;;12.67;62.38;94692.16;5010320;28;20042;-64
2022/07/18 04:10:40;;;;;;;8.95;6.40;;;;;;;12.66;62.73;94692.59;4997020;28;20050;-66
2022/07/18 04:13:08;;;;;;;8.00;6.13;;;;;;;12.67;62.59;94691.38;5010428;28;20048;-61
2022/07/18 04:15:36;;;;;;;9.15;6.30;;;;;;;12.71;62.62;94692.13;4998518;28;20487;-62
2022/07/18 04:18:04;;;;;;;8.20;6.30;;;;;;;12.82;62.54;94686.47;4995132;28;20047;-62
2022/07/18 04:20:32;;;;;;;8.55;5.57;;;;;;;12.89;62.03;94694.69;5009637;28;20037;-62
2022/07/18 04:23:02;;;;;;;7.63;5.72;;;;;;;13.02;61.49;94683.88;5010072;28;20060;-62
2022/07/18 04:25:34;;;;;;;8.10;6.00;;;;;;;12.94;62.04;94688.72;5009915;28;20061;-62
2022/07/18 04:28:02;;;;;;;9.18;6.57;;;;;;;13.09;61.46;94684.59;5010044;28;20087;-63
2022/07/18 04:30:29;;;;;;;9.43;6.85;;;;;;;13.04;61.81;94689.75;5010059;28;20390;-67
2022/07/18 04:33:00;;;;;;;10.15;6.53;;;;;;;12.95;61.92;94695.78;5009843;28;20041;-67
2022/07/18 04:35:27;;;;;;;10.23;6.60;;;;;;;12.95;62.06;94691.03;5020173;28;20058;-67
2022/07/18 04:37:53;;;;;;;8.73;6.50;;;;;;;12.91;62.56;94690.31;5009878;28;20049;-62
2022/07/18 04:40:20;;;;;;;10.57;6.70;;;;;;;12.75;63.34;94688.13;5009409;28;20414;-62
2022/07/18 04:42:47;;;;;;;9.40;6.45;;;;;;;12.90;62.72;94693.50;5009739;28;20403;-66
2022/07/18 04:45:15;;;;;;;9.23;6.93;;;;;;;13.04;61.86;94676.78;5009250;28;20426;-62
2022/07/18 04:47:42;;;;;;;9.45;6.55;;;;;;;13.10;62.00;94683.41;5009604;28;20399;-66
2022/07/18 04:50:09;;;;;;;10.97;6.50;;;;;;;13.11;62.19;94681.41;5009398;28;20426;-63
2022/07/18 04:52:40;;;;;;;10.07;6.57;;;;;;;12.96;62.06;94686.34;5009881;28;20034;-72
2022/07/18 04:55:09;;;;;;;11.93;7.05;;;;;;;13.15;61.78;94682.16;5008291;28;20046;-60
2022/07/18 04:57:36;;;;;;;10.93;6.90;;;;;;;13.32;61.07;94691.41;5010498;28;20046;-62
2022/07/18 05:00:09;;;;;;;10.15;6.82;;;;;;;13.41;60.86;94685.41;5010083;28;20048;-65
2022/07/18 05:02:41;;;;;;;11.20;7.40;;;;;;;13.43;61.13;94680.25;5014705;28;20406;-65
2022/07/18 05:05:10;;;;;;;11.77;6.63;;;;;;;13.49;60.93;94678.59;5009828;28;20056;-67
2022/07/18 05:07:41;;;;;;;9.98;6.90;;;;;;;13.61;60.66;94674.47;5009562;28;20042;-72
2022/07/18 05:10:10;;;;;;;9.45;6.88;;;;;;;13.52;60.92;94675.78;5009437;28;20042;-62
2022/07/18 05:12:39;;;;;;;10.82;6.90;;;;;;;13.50;61.12;94672.66;5009755;28;20390;-72
2022/07/18 05:15:12;;;;;;;10.37;6.97;;;;;;;13.48;61.62;94672.28;5003380;28;20436;-63
2022/07/18 05:17:39;;;;;;;8.52;6.50;;;;;;;13.66;61.33;94674.00;5008880;28;20441;-67
2022/07/18 05:20:09;;;;;;;8.98;6.50;;;;;;;13.92;60.66;94669.66;5013829;28;20046;-62
2022/07/18 05:22:36;;;;;;;11.80;6.70;;;;;;;14.19;59.61;94670.38;5011791;28;20271;-67
2022/07/18 05:25:04;;;;;;;12.05;6.80;;;;;;;14.22;59.55;94668.75;5013514;28;20405;-62
2022/07/18 05:27:32;;;;;;;11.00;6.73;;;;;;;14.39;58.63;94666.91;5013054;28;20037;-62
2022/07/18 05:29:59;;;;;;;8.70;6.60;;;;;;;14.26;59.30;94675.00;5013172;28;20678;-62
2022/07/18 05:32:27;;;;;;;11.98;7.07;;;;;;;14.54;58.73;94656.38;5012856;28;20038;-66
2022/07/18 05:34:53;;;;;;;8.98;6.53;;;;;;;15.05;57.52;94656.19;5022221;28;20133;-66
2022/07/18 05:37:20;;;;;;;10.15;6.80;;;;;;;16.66;54.06;94651.63;5012970;28;20049;-62
2022/07/18 05:39:48;;;;;;;8.67;6.30;;;;;;;19.74;45.51;94652.00;5013058;28;20052;-68
2022/07/18 05:42:14;;;;;;;9.35;6.60;;;;;;;21.45;41.48;94645.22;5012767;28;20396;-67
2022/07/18 05:44:42;;;;;;;7.78;6.00;;;;;;;20.71;42.06;94657.19;5012832;28;20034;-63
2022/07/18 05:47:08;;;;;;;7.35;5.90;;;;;;;19.40;44.96;94661.19;5012645;28;20398;-63
2022/07/18 05:49:35;;;;;;;8.52;6.18;;;;;;;20.82;42.53;94658.75;5012741;28;20489;-64
2022/07/18 05:52:02;;;;;;;11.43;6.90;;;;;;;21.80;40.24;94656.75;5012503;28;20268;-63
2022/07/18 05:54:29;;;;;;;7.85;5.88;;;;;;;23.17;37.31;94653.63;5012540;28;20386;-64
2022/07/18 05:56:56;;;;;;;8.32;5.72;;;;;;;24.84;34.89;94647.59;4996837;28;20498;-63
2022/07/18 05:59:22;;;;;;;10.80;6.05;;;;;;;27.13;31.26;94651.25;5012474;28;20050;-63
2022/07/18 06:01:49;;;;;;;9.05;5.45;;;;;;;27.39;30.07;94651.09;5017055;28;20626;-66
2022/07/18 06:04:16;;;;;;;8.77;5.83;;;;;;;26.39;31.47;94646.50;5013155;28;20454;-63
2022/07/18 06:06:44;;;;;;;8.00;5.47;;;;;;;24.69;34.20;94655.34;5013137;28;20129;-64
2022/07/18 06:09:12;;;;;;;6.60;5.63;;;;;;;24.40;35.04;94650.56;5012446;28;20044;-65
2022/07/18 06:11:39;;;;;;;7.65;5.30;;;;;;;24.78;34.47;94652.38;5013063;28;20414;-69
2022/07/18 06:14:06;;;;;;;9.35;5.57;;;;;;;25.37;33.53;94648.47;5012848;28;20038;-61
2022/07/18 06:16:32;;;;;;;7.53;5.30;;;;;;;26.10;32.29;94639.94;5011810;28;21521;-61
2022/07/18 06:18:59;;;;;;;9.10;5.20;;;;;;;28.28;28.55;94648.84;5012418;28;20050;-64
2022/07/18 06:21:26;;;;;;;9.43;5.47;;;;;;;28.67;28.68;94646.00;5011925;28;20120;-62
2022/07/18 06:23:53;;;;;;;8.02;4.82;;;;;;;30.20;25.46;94645.94;5012397;28;20037;-66
2022/07/18 06:26:20;;;;;;;7.40;5.68;;;;;;;29.74;25.83;94635.47;5010545;28;20060;-63
2022/07/18 06:28:47;;;;;;;8.37;4.40;;;;;;;28.44;28.10;94642.41;5012107;28;20048;-61
2022/07/18 06:31:16;;;;;;;8.90;4.60;;;;;;;29.05;27.29;94639.94;5011923;28;20048;-62
2022/07/18 06:33:43;;;;;;;8.73;5.07;;;;;;;30.31;26.07;94633.75;5012909;28;20380;-62
2022/07/18 06:36:11;;;;;;;9.93;4.90;;;;;;;32.07;23.85;94640.88;5012612;28;20483;-62
2022/07/18 06:38:39;;;;;;;7.72;4.70;;;;;;;30.70;24.85;94635.41;5012599;28;20048;-62
2022/07/18 06:41:07;;;;;;;7.13;4.53;;;;;;;32.00;23.50;94639.44;5011936;28;20046;-62
2022/07/18 06:43:37;;;;;;;7.57;4.68;;;;;;;32.36;22.13;94633.41;5011139;28;20115;-62
2022/07/18 06:46:04;;;;;;;9.88;4.38;;;;;;;33.17;21.52;94635.03;5011998;28;20046;-63
2022/07/18 06:48:33;;;;;;;6.40;4.10;;;;;;;34.31;20.84;94629.09;5011659;28;20075;-68
2022/07/18 06:51:04;;;;;;;6.78;4.50;;;;;;;34.00;20.85;94630.84;5011017;28;20111;-63
2022/07/18 06:53:32;;;;;;;6.37;4.17;;;;;;;34.03;21.19;94624.81;5011689;28;20048;-63
2022/07/18 06:55:59;;;;;;;6.03;4.00;;;;;;;32.93;22.18;94633.91;5011432;28;20064;-63
2022/07/18 06:58:26;;;;;;;8.23;4.13;;;;;;;32.36;23.20;94631.34;5011472;28;20050;-66
2022/07/18 07:00:52;;;;;;;6.20;4.00;;;;;;;33.82;21.79;94629.72;5011746;28;20488;-64
2022/07/18 07:03:19;;;;;;;5.28;3.88;;;;;;;34.47;20.40;94626.34;5020727;28;20049;-64
2022/07/18 07:05:46;;;;;;;8.50;3.93;;;;;;;34.42;20.79;94625.94;5012490;28;20064;-67
2022/07/18 07:08:13;;;;;;;6.03;3.85;;;;;;;34.66;19.81;94629.00;5011298;28;20060;-63
2022/07/18 07:10:41;;;;;;;5.03;3.80;;;;;;;33.72;21.16;94635.13;5011826;28;20040;-63
2022/07/18 07:13:07;;;;;;;7.10;3.90;;;;;;;32.47;22.90;94638.88;5010622;28;20045;-66
2022/07/18 07:15:42;;;;;;;5.18;3.92;;;;;;;35.14;19.88;94623.78;5011680;28;20042;-66
2022/07/18 07:18:09;;;;;;;6.13;3.67;;;;;;;36.38;18.80;94625.69;5009571;28;20068;-64
2022/07/18 07:20:36;;;;;;;5.82;3.45;;;;;;;37.86;17.61;94627.66;5011344;28;20413;-62
2022/07/18 07:23:07;;;;;;;4.82;3.80;;;;;;;37.38;16.97;94623.44;4997991;28;20081;-63
2022/07/18 07:25:34;;;;;;;5.43;3.67;;;;;;;36.41;17.95;94620.94;4996815;28;20645;-62
2022/07/18 07:28:02;;;;;;;5.68;3.53;;;;;;;36.59;17.94;94622.63;5010738;28;20050;-62
2022/07/18 07:30:29;;;;;;;5.80;3.80;;;;;;;35.71;18.42;94612.22;4996992;28;20052;-62
2022/07/18 07:33:00;;;;;;;5.20;3.60;;;;;;;37.18;17.52;94610.94;4999828;28;20503;-68
2022/07/18 07:35:27;;;;;;;7.80;3.65;;;;;;;37.02;17.32;94614.41;5009280;28;20091;-61
2022/07/18 07:37:58;;;;;;;4.70;3.50;;;;;;;37.87;16.46;94626.31;5010603;28;20406;-63
2022/07/18 07:40:28;;;;;;;5.85;3.50;;;;;;;39.22;15.49;94612.06;5009866;28;20057;-63
2022/07/18 07:43:11;;;;;;;4.50;3.33;;;;;;;38.45;15.76;94618.47;5010602;28;20491;-63
2022/07/18 07:45:39;;;;;;;6.20;3.33;;;;;;;38.84;15.62;94615.28;5010135;28;20747;-63
2022/07/18 07:48:07;;;;;;;6.13;3.20;;;;;;;38.53;15.03;94618.44;5010783;28;20046;-63
2022/07/18 07:50:34;;;;;;;4.82;2.80;;;;;;;40.30;14.38;94619.28;5009943;28;20905;-63
2022/07/18 07:53:01;;;;;;;4.45;3.20;;;;;;;40.55;14.05;94616.22;5010405;28;20419;-63
2022/07/18 07:55:28;;;;;;;4.90;3.07;;;;;;;40.68;13.85;94604.28;5010310;28;20391;-63
2022/07/18 07:57:55;;;;;;;5.05;2.92;;;;;;;41.75;12.92;94609.41;5010526;28;20038;-64
2022/07/18 08:00:21;;;;;;;8.88;3.03;;;;;;;40.91;12.75;94595.28;5010405;28;20068;-68
2022/07/18 08:02:52;;;;;;;4.22;2.80;;;;;;;39.18;13.21;94599.47;5015809;28;20050;-63
2022/07/18 08:05:27;;;;;;;4.38;2.85;;;;;;;39.97;12.32;94602.34;5010973;28;20042;-63
2022/07/18 08:07:54;;;;;;;3.93;2.90;;;;;;;40.31;12.49;94604.34;5010547;28;20056;-63
2022/07/18 08:10:21;;;;;;;5.28;2.70;;;;;;;40.33;12.34;94597.97;5010238;28;20454;-66
2022/07/18 08:12:48;;;;;;;4.13;2.60;;;;;;;40.58;11.50;94597.00;5001948;28;20054;-72
2022/07/18 08:15:15;;;;;;;4.95;2.92;;;;;;;40.59;11.87;94596.41;5033609;28;20037;-68
2022/07/18 08:17:42;;;;;;;5.28;2.90;;;;;;;41.21;11.18;94589.56;5010524;28;20041;-63
2022/07/18 08:20:16;;;;;;;4.43;2.77;;;;;;;42.02;10.83;94594.81;5010202;28;20037;-64
2022/07/18 08:23:06;;;;;;;4.60;2.60;;;;;;;42.75;10.28;94586.16;5006565;28;20392;-63
2022/07/18 08:25:35;;;;;;;8.50;2.78;;;;;;;40.98;11.64;94589.97;5002678;28;20105;-62
2022/07/18 08:28:03;;;;;;;4.47;2.70;;;;;;;38.04;13.26;94592.00;5004664;28;20053;-63
2022/07/18 08:30:31;;;;;;;5.13;2.70;;;;;;;40.52;11.99;94586.53;4990398;28;20048;-63
2022/07/18 08:33:00;;;;;;;4.93;3.10;;;;;;;41.48;11.62;94595.16;5008136;28;20034;-63
2022/07/18 08:35:28;;;;;;;3.90;2.90;;;;;;;39.83;12.35;94593.31;5017589;28;20052;-63
2022/07/18 08:37:55;;;;;;;6.18;3.00;;;;;;;40.53;12.09;94593.06;5009984;28;20056;-63
2022/07/18 08:40:21;;;;;;;4.72;2.60;;;;;;;42.55;10.40;94594.16;5009586;28;20046;-63
2022/07/18 08:42:51;;;;;;;3.75;2.55;;;;;;;43.38;9.88;94599.09;5010075;28;20049;-63
2022/07/18 08:45:44;;;;;;;27.43;4.20;;;;;;;43.22;9.99;94584.28;5009137;28;20560;-63
2022/07/18 08:48:15;;;;;;;6.15;2.88;;;;;;;42.81;10.46;94601.75;5008940;28;20041;-68
2022/07/18 08:50:47;;;;;;;6.88;2.50;;;;;;;39.92;11.31;94595.50;5010135;28;20049;-64
2022/07/18 08:53:16;;;;;;;6.03;2.40;;;;;;;38.88;11.87;94598.44;5009474;28;20049;-63
2022/07/18 08:55:44;;;;;;;4.22;2.60;;;;;;;41.59;10.29;94585.88;5010100;28;20038;-63
2022/07/18 08:58:12;;;;;;;3.30;2.40;;;;;;;39.53;11.88;94577.25;5009206;28;20034;-63
2022/07/18 09:00:59;;;;;;;4.00;2.35;;;;;;;42.33;10.01;94582.53;5006979;28;20053;-64
2022/07/18 09:03:26;;;;;;;4.45;2.40;;;;;;;40.95;10.35;94583.28;5007960;28;20054;-63
2022/07/18 09:06:08;;;;;;;5.68;2.20;;;;;;;38.14;11.37;94583.56;5010426;28;20384;-63
2022/07/18 09:08:37;;;;;;;3.42;2.40;;;;;;;40.44;10.21;94583.03;5009003;28;20942;-63
2022/07/18 09:11:09;;;;;;;3.70;2.50;;;;;;;39.07;11.54;94578.53;5009750;28;20046;-66
2022/07/18 09:13:56;;;;;;;3.25;2.30;;;;;;;38.65;11.80;94573.59;4996280;28;20453;-63
2022/07/18 09:16:23;;;;;;;4.00;2.47;;;;;;;39.19;11.58;94575.91;5009320;28;20260;-62
2022/07/18 09:18:50;;;;;;;4.45;2.63;;;;;;;38.71;12.67;94579.09;5009979;28;20042;-64
2022/07/18 09:21:20;;;;;;;4.57;2.50;;;;;;;38.46;12.64;94582.72;5009465;28;20042;-63
2022/07/18 09:23:49;;;;;;;3.80;2.67;;;;;;;37.26;13.58;94590.13;5009772;28;20042;-66
2022/07/18 09:26:42;;;;;;;3.40;2.50;;;;;;;39.74;11.84;94574.66;5009066;28;20402;-62
2022/07/18 09:29:14;;;;;;;4.10;2.60;;;;;;;40.29;11.55;94574.63;5009176;28;20038;-64
2022/07/18 09:31:54;;;;;;;4.15;2.50;;;;;;;42.05;9.80;94575.50;4994791;28;20043;-64
2022/07/18 09:34:39;;;;;;;5.22;2.70;;;;;;;38.76;12.61;94575.97;5011142;28;20038;-63
2022/07/18 09:37:11;;;;;;;5.47;2.70;;;;;;;36.76;14.66;94577.09;5009258;28;20119;-64
2022/07/18 09:39:38;;;;;;;3.42;2.50;;;;;;;39.52;12.99;94567.09;5008752;28;21543;-63
2022/07/18 09:42:16;;;;;;;4.10;2.58;;;;;;;38.49;12.55;94578.66;5009140;28;20030;-65
2022/07/18 09:44:56;;;;;;;3.75;2.55;;;;;;;39.03;12.51;94574.56;5008699;28;20867;-63
2022/07/18 09:47:22;;;;;;;3.83;2.50;;;;;;;41.68;11.02;94576.50;5008809;28;20050;-63
2022/07/18 09:49:49;;;;;;;4.20;2.27;;;;;;;43.26;9.55;94578.03;5009678;28;20484;-63
2022/07/18 09:52:16;;;;;;;3.20;2.20;;;;;;;40.71;10.91;94580.06;5008701;28;20042;-69
2022/07/18 09:54:43;;;;;;;3.53;2.35;;;;;;;42.04;10.40;94580.53;5009357;28;20045;-67
2022/07/18 09:57:23;;;;;;;5.10;2.30;;;;;;;42.70;10.23;94570.66;5008514;28;20042;-65
2022/07/18 09:59:51;;;;;;;3.65;2.13;;;;;;;43.74;9.11;94567.47;5010596;28;20048;-65
2022/07/18 10:02:18;;;;;;;4.93;2.50;;;;;;;39.66;11.08;94574.00;5020630;28;20037;-67
2022/07/18 10:04:46;;;;;;;4.85;2.60;;;;;;;34.97;14.71;94581.47;5014327;28;20052;-69
2022/07/18 10:07:13;;;;;;;4.03;2.70;;;;;;;29.80;19.43;94591.72;5012748;28;20037;-67
2022/07/18 10:09:40;;;;;;;3.72;2.50;;;;;;;34.35;15.49;94586.75;5012566;28;20080;-62
2022/07/18 10:12:07;;;;;;;3.78;2.60;;;;;;;34.73;15.04;94585.50;4994630;28;20033;-62
2022/07/18 10:14:34;;;;;;;5.30;2.47;;;;;;;35.36;14.48;94591.00;5012655;28;20042;-63
2022/07/18 10:17:01;;;;;;;3.88;2.50;;;;;;;34.73;15.10;94594.06;5012546;28;20618;-67
2022/07/18 10:19:28;;;;;;;5.20;2.65;;;;;;;36.10;14.55;94590.22;5012382;28;20038;-64
2022/07/18 10:21:56;;;;;;;4.55;2.60;;;;;;;36.93;13.67;94582.19;5012457;28;20033;-72
2022/07/18 10:24:25;;;;;;;5.70;2.60;;;;;;;39.03;12.06;94580.31;5012258;28;20054;-69
2022/07/18 10:27:11;;;;;;;6.63;2.50;;;;;;;39.70;11.95;94577.22;5012851;28;20049;-64
2022/07/18 10:29:38;;;;;;;3.88;2.60;;;;;;;35.15;14.62;94582.50;5011993;28;20756;-64
2022/07/18 10:32:07;;;;;;;4.07;2.50;;;;;;;37.71;12.39;94586.31;5012527;28;20057;-64
2022/07/18 10:34:39;;;;;;;5.30;2.72;;;;;;;38.54;12.39;94580.56;5022630;28;20270;-65
2022/07/18 10:37:06;;;;;;;3.92;2.45;;;;;;;39.68;11.34;94576.25;5031861;28;20387;-64
2022/07/18 10:39:38;;;;;;;3.97;2.40;;;;;;;40.06;11.25;94578.59;5031452;28;20394;-64
2022/07/18 10:42:08;;;;;;;3.85;2.47;;;;;;;40.27;10.77;94565.84;5032057;28;20042;-64
2022/07/18 10:44:36;;;;;;;4.80;2.53;;;;;;;39.31;11.38;94565.41;5031462;28;20614;-63
2022/07/18 10:47:06;;;;;;;4.18;2.50;;;;;;;39.27;11.52;94567.22;5032100;28;20512;-63
2022/07/18 10:49:48;;;;;;;4.07;2.47;;;;;;;38.55;11.87;94558.38;5031428;28;20810;-63
2022/07/18 10:55:03;;;;;;;3.65;2.38;;;;;;;37.90;12.55;94557.16;5031922;28;20040;-68
2022/07/18 10:57:36;;;;;;;5.63;2.70;;;;;;;35.27;14.53;94560.88;5031468;28;20047;-68
2022/07/18 11:00:08;;;;;;;3.50;2.78;;;;;;;34.46;15.16;94562.88;5031865;28;20044;-62
2022/07/18 11:02:39;;;;;;;6.32;2.80;;;;;;;34.74;15.04;94559.28;5020588;28;20333;-61
2022/07/18 11:05:24;;;;;;;3.67;2.97;;;;;;;34.61;15.43;94560.16;5012793;28;20453;-66
2022/07/18 11:08:07;;;;;;;4.15;2.90;;;;;;;34.93;15.71;94566.78;5011539;28;21745;-62
2022/07/18 11:10:44;;;;;;;4.95;2.90;;;;;;;31.90;17.51;94564.47;5010991;28;21524;-61
2022/07/18 11:13:28;;;;;;;4.15;2.70;;;;;;;31.53;18.18;94560.41;5010919;28;20048;-62
2022/07/18 11:16:07;;;;;;;4.82;3.15;;;;;;;32.04;18.28;94563.22;5011767;28;20120;-67
2022/07/18 11:18:40;;;;;;;4.63;3.00;;;;;;;31.00;18.43;94566.56;5011002;28;20065;-63
2022/07/18 11:21:36;;;;;;;4.82;3.00;;;;;;;29.92;19.65;94563.31;5010983;28;20046;-62
2022/07/18 11:24:08;;;;;;;4.78;3.22;;;;;;;29.61;20.44;94568.19;5003225;28;20040;-66
2022/07/18 11:26:37;;;;;;;5.57;3.05;;;;;;;30.53;19.61;94558.38;5010500;28;20780;-62
2022/07/18 11:29:08;;;;;;;3.60;2.90;;;;;;;31.47;18.46;94549.16;5011468;28;20053;-62
2022/07/18 11:31:49;;;;;;;4.33;2.97;;;;;;;30.38;19.39;94544.63;5011068;28;20647;-65
2022/07/18 11:34:16;;;;;;;4.72;3.00;;;;;;;31.35;18.88;94550.59;5019025;28;20049;-62
2022/07/18 11:36:46;;;;;;;5.10;2.90;;;;;;;31.99;18.51;94541.34;5031191;28;20049;-65
2022/07/18 11:39:15;;;;;;;4.78;3.00;;;;;;;31.89;18.07;94540.97;5030044;28;20037;-63
2022/07/18 11:41:42;;;;;;;8.50;3.13;;;;;;;32.08;18.17;94538.13;5030833;28;20045;-63